sensor_id;sensor_type;location;lat;lon;timestamp;pressure;altitude;pressure_sealevel;temperature;humidity
13209;BME280;6669;42.678;23.332;2023-07-28T00:00:07;94632.44;;;15.43;100.00
13209;BME280;6669;42.678;23.332;2023-07-28T00:02:37;94630.81;;;15.35;100.00
13209;BME280;6669;42.678;23.332;2023-07-28T00:05:05;94635.84;;;15.30;100.00
13209;BME280;6669;42.678;23.332;2023-07-28T00:07:33;94629.00;;;15.23;100.00
13209;BME280;6669;42.678;23.332;2023-07-28T00:10:03;94625.19;;;15.25;100.00
13209;BME280;6669;42.678;23.332;2023-07-28T00:12:31;94630.41;;;15.12;100.00
13209;BME280;6669;42.678;23.332;2023-07-28T00:14:59;94630.00;;;15.08;100.00
13209;BME280;6669;42.678;23.332;2023-07-28T00:17:27;94632.00;;;14.99;100.00
13209;BME280;6669;42.678;23.332;2023-07-28T00:19:56;94621.13;;;14.96;100.00
13209;BME280;6669;42.678;23.332;2023-07-28T00:22:24;94616.69;;;14.90;100.00
13209;BME280;6669;42.678;23.332;2023-07-28T00:24:52;94627.56;;;15.00;100.00
13209;BME280;6669;42.678;23.332;2023-07-28T00:27:20;94629.97;;;14.95;100.00
13209;BME280;6669;42.678;23.332;2023-07-28T00:29:49;94617.31;;;14.92;100.00
13209;BME280;6669;42.678;23.332;2023-07-28T00:32:17;94610.66;;;14.89;100.00
13209;BME280;6669;42.678;23.332;2023-07-28T00:34:46;94619.69;;;14.86;100.00
13209;BME280;6669;42.678;23.332;2023-07-28T00:37:15;94620.72;;;14.85;100.00
13209;BME280;6669;42.678;23.332;2023-07-28T00:39:43;94618.47;;;14.76;100.00
13209;BME280;6669;42.678;23.332;2023-07-28T00:42:11;94629.94;;;14.75;100.00
13209;BME280;6669;42.678;23.332;2023-07-28T00:44:39;94622.28;;;14.66;100.00
13209;BME280;6669;42.678;23.332;2023-07-28T00:47:07;94629.88;;;14.61;100.00
13209;BME280;6669;42.678;23.332;2023-07-28T00:49:36;94628.25;;;14.60;100.00
13209;BME280;6669;42.678;23.332;2023-07-28T00:52:06;94629.25;;;14.59;100.00
13209;BME280;6669;42.678;23.332;2023-07-28T00:54:36;94626.00;;;14.57;100.00
13209;BME280;6669;42.678;23.332;2023-07-28T00:57:04;94626.41;;;14.54;100.00
13209;BME280;6669;42.678;23.332;2023-07-28T00:59:32;94613.25;;;14.34;100.00
13209;BME280;6669;42.678;23.332;2023-07-28T01:02:00;94635.81;;;14.35;100.00
13209;BME280;6669;42.678;23.332;2023-07-28T01:04:30;94635.59;;;14.30;100.00
13209;BME280;6669;42.678;23.332;2023-07-28T01:07:03;94630.34;;;14.23;100.00
13209;BME280;6669;42.678;23.332;2023-07-28T01:09:39;94600.31;;;14.12;100.00
13209;BME280;6669;42.678;23.332;2023-07-28T01:12:09;94619.44;;;14.13;100.00
13209;BME280;6669;42.678;23.332;2023-07-28T01:14:37;94631.47;;;14.14;100.00
13209;BME280;6669;42.678;23.332;2023-07-28T01:17:05;94630.69;;;14.13;100.00
13209;BME280;6669;42.678;23.332;2023-07-28T01:19:34;94629.63;;;14.07;100.00
13209;BME280;6669;42.678;23.332;2023-07-28T01:22:19;94638.09;;;14.10;100.00
13209;BME280;6669;42.678;23.332;2023-07-28T01:25:06;94634.84;;;14.07;100.00
13209;BME280;6669;42.678;23.332;2023-07-28T01:27:40;94636.06;;;14.05;100.00
13209;BME280;6669;42.678;23.332;2023-07-28T01:30:10;94630.66;;;14.06;100.00
13209;BME280;6669;42.678;23.332;2023-07-28T01:32:39;94629.19;;;13.97;100.00
13209;BME280;6669;42.678;23.332;2023-07-28T01:35:08;94619.09;;;13.87;100.00
13209;BME280;6669;42.678;23.332;2023-07-28T01:37:36;94630.31;;;13.81;100.00
13209;BME280;6669;42.678;23.332;2023-07-28T01:40:05;94624.66;;;13.78;100.00
13209;BME280;6669;42.678;23.332;2023-07-28T01:42:33;94625.28;;;13.80;100.00
13209;BME280;6669;42.678;23.332;2023-07-28T01:45:03;94635.09;;;13.78;100.00
13209;BME280;6669;42.678;23.332;2023-07-28T01:47:32;94621.00;;;13.72;100.00
13209;BME280;6669;42.678;23.332;2023-07-28T01:50:00;94635.09;;;13.78;100.00
13209;BME280;6669;42.678;23.332;2023-07-28T01:52:28;94627.66;;;13.75;100.00
13209;BME280;6669;42.678;23.332;2023-07-28T01:54:56;94627.44;;;13.69;100.00
13209;BME280;6669;42.678;23.332;2023-07-28T01:57:24;94621.38;;;13.69;100.00
13209;BME280;6669;42.678;23.332;2023-07-28T01:59:53;94624.56;;;13.64;100.00
13209;BME280;6669;42.678;23.332;2023-07-28T02:02:23;94634.19;;;13.64;100.00
13209;BME280;6669;42.678;23.332;2023-07-28T02:04:51;94646.00;;;13.53;100.00
13209;BME280;6669;42.678;23.332;2023-07-28T02:07:19;94636.34;;;13.53;100.00
13209;BME280;6669;42.678;23.332;2023-07-28T02:09:47;94620.00;;;13.45;100.00
13209;BME280;6669;42.678;23.332;2023-07-28T02:12:15;94624.25;;;13.46;100.00
13209;BME280;6669;42.678;23.332;2023-07-28T02:14:43;94627.88;;;13.51;100.00
13209;BME280;6669;42.678;23.332;2023-07-28T02:17:11;94632.31;;;13.51;100.00
13209;BME280;6669;42.678;23.332;2023-07-28T02:19:40;94618.16;;;13.38;100.00
13209;BME280;6669;42.678;23.332;2023-07-28T02:22:08;94625.22;;;13.45;100.00
13209;BME280;6669;42.678;23.332;2023-07-28T02:24:38;94636.91;;;13.49;100.00
13209;BME280;6669;42.678;23.332;2023-07-28T02:27:06;94647.75;;;13.46;100.00
13209;BME280;6669;42.678;23.332;2023-07-28T02:29:34;94636.84;;;13.42;100.00
13209;BME280;6669;42.678;23.332;2023-07-28T02:32:02;94638.91;;;13.47;100.00
13209;BME280;6669;42.678;23.332;2023-07-28T02:34:30;94627.22;;;13.43;100.00
13209;BME280;6669;42.678;23.332;2023-07-28T02:36:59;94637.97;;;13.54;100.00
13209;BME280;6669;42.678;23.332;2023-07-28T02:39:27;94633.69;;;13.47;100.00
13209;BME280;6669;42.678;23.332;2023-07-28T02:41:55;94630.06;;;13.48;100.00
13209;BME280;6669;42.678;23.332;2023-07-28T02:44:23;94635.28;;;13.48;100.00
13209;BME280;6669;42.678;23.332;2023-07-28T02:46:51;94636.44;;;13.38;100.00
13209;BME280;6669;42.678;23.332;2023-07-28T02:49:19;94629.41;;;13.39;100.00
13209;BME280;6669;42.678;23.332;2023-07-28T02:51:47;94638.25;;;13.38;100.00
13209;BME280;6669;42.678;23.332;2023-07-28T02:54:16;94628.72;;;13.30;100.00
13209;BME280;6669;42.678;23.332;2023-07-28T02:56:44;94637.16;;;13.32;100.00
13209;BME280;6669;42.678;23.332;2023-07-28T02:59:13;94623.09;;;13.33;100.00
13209;BME280;6669;42.678;23.332;2023-07-28T03:01:41;94626.47;;;13.27;100.00
13209;BME280;6669;42.678;23.332;2023-07-28T03:04:09;94632.31;;;13.29;100.00
13209;BME280;6669;42.678;23.332;2023-07-28T03:06:37;94638.72;;;13.27;100.00
13209;BME280;6669;42.678;23.332;2023-07-28T03:09:05;94636.47;;;13.23;100.00
13209;BME280;6669;42.678;23.332;2023-07-28T03:11:35;94636.66;;;13.22;100.00
13209;BME280;6669;42.678;23.332;2023-07-28T03:14:02;94641.44;;;13.18;100.00
13209;BME280;6669;42.678;23.332;2023-07-28T03:16:30;94629.91;;;13.06;100.00
13209;BME280;6669;42.678;23.332;2023-07-28T03:19:01;94643.88;;;13.20;100.00
13209;BME280;6669;42.678;23.332;2023-07-28T03:21:30;94643.88;;;13.20;100.00
13209;BME280;6669;42.678;23.332;2023-07-28T03:23:58;94642.63;;;13.16;100.00
13209;BME280;6669;42.678;23.332;2023-07-28T03:26:26;94645.00;;;13.11;100.00
13209;BME280;6669;42.678;23.332;2023-07-28T03:28:56;94647.00;;;13.08;100.00
13209;BME280;6669;42.678;23.332;2023-07-28T03:31:24;94642.88;;;12.99;100.00
13209;BME280;6669;42.678;23.332;2023-07-28T03:33:52;94655.25;;;13.12;100.00
13209;BME280;6669;42.678;23.332;2023-07-28T03:36:20;94653.88;;;13.16;100.00
13209;BME280;6669;42.678;23.332;2023-07-28T03:38:48;94652.47;;;13.14;100.00
13209;BME280;6669;42.678;23.332;2023-07-28T03:41:16;94654.13;;;13.21;100.00
13209;BME280;6669;42.678;23.332;2023-07-28T03:43:44;94652.72;;;13.19;100.00
13209;BME280;6669;42.678;23.332;2023-07-28T03:46:14;94648.03;;;13.14;100.00
13209;BME280;6669;42.678;23.332;2023-07-28T03:48:42;94656.94;;;13.20;100.00
13209;BME280;6669;42.678;23.332;2023-07-28T03:51:10;94671.09;;;13.32;100.00
13209;BME280;6669;42.678;23.332;2023-07-28T03:53:38;94661.03;;;13.29;100.00
13209;BME280;6669;42.678;23.332;2023-07-28T03:56:06;94667.13;;;13.36;100.00
13209;BME280;6669;42.678;23.332;2023-07-28T03:58:34;94651.47;;;13.36;100.00
13209;BME280;6669;42.678;23.332;2023-07-28T04:01:03;94656.94;;;13.42;100.00
13209;BME280;6669;42.678;23.332;2023-07-28T04:03:35;94660.13;;;13.37;100.00
13209;BME280;6669;42.678;23.332;2023-07-28T04:06:09;94654.91;;;13.37;100.00
13209;BME280;6669;42.678;23.332;2023-07-28T04:08:37;94647.97;;;13.29;100.00
13209;BME280;6669;42.678;23.332;2023-07-28T04:11:05;94667.28;;;13.35;100.00
13209;BME280;6669;42.678;23.332;2023-07-28T04:13:34;94665.97;;;13.39;100.00
13209;BME280;6669;42.678;23.332;2023-07-28T04:16:02;94666.00;;;13.46;100.00
13209;BME280;6669;42.678;23.332;2023-07-28T04:18:30;94669.06;;;13.49;100.00
13209;BME280;6669;42.678;23.332;2023-07-28T04:21:00;94667.25;;;13.50;100.00
13209;BME280;6669;42.678;23.332;2023-07-28T04:23:28;94670.34;;;13.60;100.00
13209;BME280;6669;42.678;23.332;2023-07-28T04:25:57;94673.19;;;13.65;100.00
13209;BME280;6669;42.678;23.332;2023-07-28T04:28:25;94676.66;;;13.72;100.00
13209;BME280;6669;42.678;23.332;2023-07-28T04:30:53;94676.03;;;13.70;100.00
13209;BME280;6669;42.678;23.332;2023-07-28T04:33:21;94673.84;;;13.74;100.00
13209;BME280;6669;42.678;23.332;2023-07-28T04:35:50;94680.75;;;13.82;100.00
13209;BME280;6669;42.678;23.332;2023-07-28T04:38:19;94674.00;;;13.94;100.00
13209;BME280;6669;42.678;23.332;2023-07-28T04:40:47;94679.88;;;14.03;100.00
13209;BME280;6669;42.678;23.332;2023-07-28T04:43:15;94671.44;;;14.07;100.00
13209;BME280;6669;42.678;23.332;2023-07-28T04:45:44;94675.50;;;14.10;100.00
13209;BME280;6669;42.678;23.332;2023-07-28T04:48:12;94671.72;;;14.13;100.00
13209;BME280;6669;42.678;23.332;2023-07-28T04:50:40;94675.13;;;14.13;100.00
13209;BME280;6669;42.678;23.332;2023-07-28T04:53:08;94667.31;;;14.20;100.00
13209;BME280;6669;42.678;23.332;2023-07-28T04:55:37;94659.09;;;14.23;100.00
13209;BME280;6669;42.678;23.332;2023-07-28T04:58:05;94673.59;;;14.32;100.00
13209;BME280;6669;42.678;23.332;2023-07-28T05:00:33;94674.41;;;14.33;100.00
13209;BME280;6669;42.678;23.332;2023-07-28T05:03:01;94675.66;;;14.37;100.00
13209;BME280;6669;42.678;23.332;2023-07-28T05:05:29;94661.19;;;14.41;100.00
13209;BME280;6669;42.678;23.332;2023-07-28T05:07:57;94675.13;;;14.55;100.00
13209;BME280;6669;42.678;23.332;2023-07-28T05:10:26;94673.09;;;14.57;100.00
13209;BME280;6669;42.678;23.332;2023-07-28T05:12:55;94669.13;;;14.61;100.00
13209;BME280;6669;42.678;23.332;2023-07-28T05:15:23;94674.19;;;14.69;100.00
13209;BME280;6669;42.678;23.332;2023-07-28T05:17:51;94672.63;;;14.75;100.00
13209;BME280;6669;42.678;23.332;2023-07-28T05:20:19;94668.97;;;14.76;100.00
13209;BME280;6669;42.678;23.332;2023-07-28T05:22:47;94673.81;;;14.79;100.00
13209;BME280;6669;42.678;23.332;2023-07-28T05:25:15;94665.75;;;14.74;100.00
13209;BME280;6669;42.678;23.332;2023-07-28T05:27:44;94664.56;;;14.83;100.00
13209;BME280;6669;42.678;23.332;2023-07-28T05:30:13;94678.28;;;14.85;100.00
13209;BME280;6669;42.678;23.332;2023-07-28T05:32:41;94682.69;;;14.85;100.00
13209;BME280;6669;42.678;23.332;2023-07-28T05:35:09;94678.44;;;14.84;100.00
13209;BME280;6669;42.678;23.332;2023-07-28T05:37:37;94673.25;;;14.97;100.00
13209;BME280;6669;42.678;23.332;2023-07-28T05:40:06;94670.06;;;15.09;100.00
13209;BME280;6669;42.678;23.332;2023-07-28T05:42:34;94668.66;;;15.13;100.00
13209;BME280;6669;42.678;23.332;2023-07-28T05:45:03;94672.31;;;15.25;100.00
13209;BME280;6669;42.678;23.332;2023-07-28T05:47:32;94670.09;;;15.35;100.00
13209;BME280;6669;42.678;23.332;2023-07-28T05:50:01;94669.50;;;15.47;100.00
13209;BME280;6669;42.678;23.332;2023-07-28T05:52:31;94656.03;;;15.57;100.00
13209;BME280;6669;42.678;23.332;2023-07-28T05:54:59;94661.47;;;15.62;100.00
13209;BME280;6669;42.678;23.332;2023-07-28T05:57:27;94647.72;;;15.66;100.00
13209;BME280;6669;42.678;23.332;2023-07-28T05:59:55;94650.56;;;15.78;100.00
13209;BME280;6669;42.678;23.332;2023-07-28T06:02:23;94653.00;;;15.87;100.00
13209;BME280;6669;42.678;23.332;2023-07-28T06:04:53;94654.41;;;15.89;100.00
13209;BME280;6669;42.678;23.332;2023-07-28T06:07:21;94651.38;;;15.99;100.00
13209;BME280;6669;42.678;23.332;2023-07-28T06:09:49;94645.47;;;16.04;100.00
13209;BME280;6669;42.678;23.332;2023-07-28T06:12:17;94649.31;;;16.14;100.00
13209;BME280;6669;42.678;23.332;2023-07-28T06:14:46;94640.84;;;16.19;100.00
13209;BME280;6669;42.678;23.332;2023-07-28T06:17:14;94644.00;;;16.34;100.00
13209;BME280;6669;42.678;23.332;2023-07-28T06:19:42;94648.41;;;16.47;100.00
13209;BME280;6669;42.678;23.332;2023-07-28T06:22:11;94644.31;;;16.58;100.00
13209;BME280;6669;42.678;23.332;2023-07-28T06:24:39;94639.31;;;16.50;100.00
13209;BME280;6669;42.678;23.332;2023-07-28T06:27:07;94637.44;;;16.64;100.00
13209;BME280;6669;42.678;23.332;2023-07-28T06:29:36;94634.16;;;16.75;100.00
13209;BME280;6669;42.678;23.332;2023-07-28T06:32:05;94639.41;;;16.75;100.00
13209;BME280;6669;42.678;23.332;2023-07-28T06:34:33;94629.44;;;16.91;100.00
13209;BME280;6669;42.678;23.332;2023-07-28T06:37:01;94635.19;;;17.06;100.00
13209;BME280;6669;42.678;23.332;2023-07-28T06:39:30;94632.16;;;17.09;100.00
13209;BME280;6669;42.678;23.332;2023-07-28T06:41:58;94637.78;;;17.13;100.00
13209;BME280;6669;42.678;23.332;2023-07-28T06:44:26;94638.59;;;17.13;100.00
13209;BME280;6669;42.678;23.332;2023-07-28T06:46:54;94633.06;;;17.22;100.00
13209;BME280;6669;42.678;23.332;2023-07-28T06:49:22;94637.09;;;17.24;100.00
13209;BME280;6669;42.678;23.332;2023-07-28T06:51:50;94639.94;;;17.23;100.00
13209;BME280;6669;42.678;23.332;2023-07-28T06:54:18;94635.41;;;17.37;100.00
13209;BME280;6669;42.678;23.332;2023-07-28T06:56:47;94639.38;;;17.46;100.00
13209;BME280;6669;42.678;23.332;2023-07-28T06:59:15;94632.78;;;17.62;100.00
13209;BME280;6669;42.678;23.332;2023-07-28T07:01:47;94639.44;;;17.64;100.00
13209;BME280;6669;42.678;23.332;2023-07-28T07:04:16;94635.28;;;17.75;100.00
13209;BME280;6669;42.678;23.332;2023-07-28T07:06:44;94641.50;;;17.81;100.00
13209;BME280;6669;42.678;23.332;2023-07-28T07:09:12;94643.06;;;17.89;100.00
13209;BME280;6669;42.678;23.332;2023-07-28T07:11:41;94643.53;;;18.04;100.00
13209;BME280;6669;42.678;23.332;2023-07-28T07:14:10;94633.00;;;18.04;100.00
13209;BME280;6669;42.678;23.332;2023-07-28T07:16:38;94635.94;;;18.14;100.00
13209;BME280;6669;42.678;23.332;2023-07-28T07:19:06;94637.13;;;18.37;100.00
13209;BME280;6669;42.678;23.332;2023-07-28T07:21:35;94639.66;;;18.44;100.00
13209;BME280;6669;42.678;23.332;2023-07-28T07:24:04;94644.56;;;18.59;100.00
13209;BME280;6669;42.678;23.332;2023-07-28T07:26:32;94635.50;;;18.55;100.00
13209;BME280;6669;42.678;23.332;2023-07-28T07:29:01;94643.59;;;18.72;100.00
13209;BME280;6669;42.678;23.332;2023-07-28T07:31:30;94647.31;;;18.83;100.00
13209;BME280;6669;42.678;23.332;2023-07-28T07:33:59;94628.81;;;18.71;100.00
13209;BME280;6669;42.678;23.332;2023-07-28T07:36:27;94642.25;;;19.00;100.00
13209;BME280;6669;42.678;23.332;2023-07-28T07:38:55;94644.69;;;19.13;100.00
13209;BME280;6669;42.678;23.332;2023-07-28T07:41:23;94649.63;;;19.21;100.00
13209;BME280;6669;42.678;23.332;2023-07-28T07:43:54;94646.09;;;19.16;100.00
13209;BME280;6669;42.678;23.332;2023-07-28T07:46:22;94650.53;;;19.15;100.00
13209;BME280;6669;42.678;23.332;2023-07-28T07:48:52;94645.50;;;19.25;100.00
13209;BME280;6669;42.678;23.332;2023-07-28T07:51:20;94644.72;;;19.25;100.00
13209;BME280;6669;42.678;23.332;2023-07-28T07:53:49;94641.06;;;19.38;100.00
13209;BME280;6669;42.678;23.332;2023-07-28T07:56:17;94647.97;;;19.51;100.00
13209;BME280;6669;42.678;23.332;2023-07-28T07:58:45;94652.81;;;19.66;100.00
13209;BME280;6669;42.678;23.332;2023-07-28T08:01:13;94651.78;;;19.67;100.00
13209;BME280;6669;42.678;23.332;2023-07-28T08:03:41;94651.16;;;19.83;100.00
13209;BME280;6669;42.678;23.332;2023-07-28T08:06:10;94647.81;;;20.00;100.00
13209;BME280;6669;42.678;23.332;2023-07-28T08:08:39;94640.13;;;20.10;100.00
13209;BME280;6669;42.678;23.332;2023-07-28T08:11:10;94645.03;;;20.18;100.00
13209;BME280;6669;42.678;23.332;2023-07-28T08:13:38;94637.81;;;20.25;100.00
13209;BME280;6669;42.678;23.332;2023-07-28T08:16:06;94639.75;;;20.30;100.00
13209;BME280;6669;42.678;23.332;2023-07-28T08:18:35;94640.97;;;20.51;100.00
13209;BME280;6669;42.678;23.332;2023-07-28T08:21:03;94638.16;;;20.70;100.00
13209;BME280;6669;42.678;23.332;2023-07-28T08:23:32;94633.97;;;20.86;100.00
13209;BME280;6669;42.678;23.332;2023-07-28T08:26:00;94625.16;;;20.80;100.00
13209;BME280;6669;42.678;23.332;2023-07-28T08:28:28;94630.81;;;21.01;100.00
13209;BME280;6669;42.678;23.332;2023-07-28T08:30:56;94631.09;;;21.16;100.00
13209;BME280;6669;42.678;23.332;2023-07-28T08:33:25;94627.19;;;21.36;100.00
13209;BME280;6669;42.678;23.332;2023-07-28T08:35:53;94635.47;;;21.39;100.00
13209;BME280;6669;42.678;23.332;2023-07-28T08:38:21;94633.94;;;21.44;100.00
13209;BME280;6669;42.678;23.332;2023-07-28T08:40:51;94626.94;;;21.54;100.00
13209;BME280;6669;42.678;23.332;2023-07-28T08:43:19;94632.28;;;21.71;100.00
13209;BME280;6669;42.678;23.332;2023-07-28T08:45:47;94632.25;;;21.88;100.00
13209;BME280;6669;42.678;23.332;2023-07-28T08:48:15;94628.00;;;22.04;100.00
13209;BME280;6669;42.678;23.332;2023-07-28T08:50:44;94618.91;;;22.17;100.00
13209;BME280;6669;42.678;23.332;2023-07-28T08:53:12;94613.94;;;22.21;96.95
13209;BME280;6669;42.678;23.332;2023-07-28T08:55:40;94622.03;;;22.14;96.13
13209;BME280;6669;42.678;23.332;2023-07-28T08:58:16;94613.88;;;22.16;95.47
13209;BME280;6669;42.678;23.332;2023-07-28T09:00:46;94614.84;;;22.32;95.04
13209;BME280;6669;42.678;23.332;2023-07-28T09:03:16;94607.56;;;22.39;95.63
13209;BME280;6669;42.678;23.332;2023-07-28T09:05:45;94608.50;;;22.11;91.24
13209;BME280;6669;42.678;23.332;2023-07-28T09:08:14;94602.00;;;22.01;93.17
13209;BME280;6669;42.678;23.332;2023-07-28T09:10:43;94593.59;;;22.27;95.02
13209;BME280;6669;42.678;23.332;2023-07-28T09:13:11;94586.69;;;22.43;93.44
13209;BME280;6669;42.678;23.332;2023-07-28T09:15:45;94582.03;;;22.55;88.73
13209;BME280;6669;42.678;23.332;2023-07-28T09:18:15;94573.47;;;22.70;91.23
13209;BME280;6669;42.678;23.332;2023-07-28T09:20:43;94576.50;;;22.84;88.91
13209;BME280;6669;42.678;23.332;2023-07-28T09:23:13;94565.66;;;22.85;89.72
13209;BME280;6669;42.678;23.332;2023-07-28T09:25:42;94575.41;;;23.07;89.87
13209;BME280;6669;42.678;23.332;2023-07-28T09:28:10;94562.03;;;23.19;89.32
13209;BME280;6669;42.678;23.332;2023-07-28T09:30:47;94571.06;;;23.23;83.10
13209;BME280;6669;42.678;23.332;2023-07-28T09:33:28;94555.47;;;23.27;83.68
13209;BME280;6669;42.678;23.332;2023-07-28T09:35:57;94555.03;;;23.45;83.05
13209;BME280;6669;42.678;23.332;2023-07-28T09:38:36;94552.69;;;23.49;83.56
13209;BME280;6669;42.678;23.332;2023-07-28T09:41:06;94546.69;;;23.64;82.70
13209;BME280;6669;42.678;23.332;2023-07-28T09:43:36;94533.78;;;23.78;85.13
13209;BME280;6669;42.678;23.332;2023-07-28T09:46:07;94536.28;;;23.95;78.65
13209;BME280;6669;42.678;23.332;2023-07-28T09:48:37;94530.25;;;24.10;79.11
13209;BME280;6669;42.678;23.332;2023-07-28T09:51:12;94526.84;;;24.25;76.31
13209;BME280;6669;42.678;23.332;2023-07-28T09:53:46;94527.91;;;24.29;77.48
13209;BME280;6669;42.678;23.332;2023-07-28T09:56:16;94515.41;;;24.24;74.40
13209;BME280;6669;42.678;23.332;2023-07-28T09:58:50;94529.00;;;24.33;76.21
13209;BME280;6669;42.678;23.332;2023-07-28T10:01:20;94525.03;;;24.46;75.59
13209;BME280;6669;42.678;23.332;2023-07-28T10:03:49;94510.44;;;24.48;75.53
13209;BME280;6669;42.678;23.332;2023-07-28T10:06:19;94521.94;;;24.64;70.72
13209;BME280;6669;42.678;23.332;2023-07-28T10:08:49;94517.16;;;24.67;68.95
13209;BME280;6669;42.678;23.332;2023-07-28T10:11:18;94517.19;;;24.77;70.78
13209;BME280;6669;42.678;23.332;2023-07-28T10:13:47;94510.28;;;24.91;71.29
13209;BME280;6669;42.678;23.332;2023-07-28T10:16:15;94514.81;;;24.91;67.14
13209;BME280;6669;42.678;23.332;2023-07-28T10:18:53;94507.06;;;24.69;66.83
13209;BME280;6669;42.678;23.332;2023-07-28T10:21:21;94504.16;;;24.86;66.74
13209;BME280;6669;42.678;23.332;2023-07-28T10:23:55;94507.88;;;25.05;68.61
13209;BME280;6669;42.678;23.332;2023-07-28T10:26:31;94508.94;;;25.20;68.58
13209;BME280;6669;42.678;23.332;2023-07-28T10:29:13;94509.47;;;25.27;65.76
13209;BME280;6669;42.678;23.332;2023-07-28T10:31:52;94502.53;;;25.31;67.04
13209;BME280;6669;42.678;23.332;2023-07-28T10:34:22;94490.06;;;25.32;64.36
13209;BME280;6669;42.678;23.332;2023-07-28T10:36:57;94482.34;;;25.14;64.68
13209;BME280;6669;42.678;23.332;2023-07-28T10:39:26;94493.53;;;25.01;65.88
13209;BME280;6669;42.678;23.332;2023-07-28T10:42:03;94489.81;;;25.38;67.67
13209;BME280;6669;42.678;23.332;2023-07-28T10:44:32;94489.22;;;25.62;66.71
13209;BME280;6669;42.678;23.332;2023-07-28T10:47:01;94491.03;;;25.77;63.04
13209;BME280;6669;42.678;23.332;2023-07-28T10:49:32;94488.09;;;25.78;64.39
13209;BME280;6669;42.678;23.332;2023-07-28T10:52:00;94488.56;;;26.01;65.29
13209;BME280;6669;42.678;23.332;2023-07-28T10:54:27;94473.00;;;26.29;62.78
13209;BME280;6669;42.678;23.332;2023-07-28T10:56:56;94469.50;;;26.39;62.32
13209;BME280;6669;42.678;23.332;2023-07-28T10:59:25;94471.66;;;26.82;62.31
13209;BME280;6669;42.678;23.332;2023-07-28T11:01:53;94472.53;;;27.06;60.20
13209;BME280;6669;42.678;23.332;2023-07-28T11:04:21;94471.03;;;27.54;58.59
13209;BME280;6669;42.678;23.332;2023-07-28T11:06:51;94457.00;;;28.16;59.00
13209;BME280;6669;42.678;23.332;2023-07-28T11:09:23;94451.88;;;28.96;58.80
13209;BME280;6669;42.678;23.332;2023-07-28T11:11:51;94455.56;;;29.33;55.73
13209;BME280;6669;42.678;23.332;2023-07-28T11:14:19;94454.69;;;29.65;54.82
13209;BME280;6669;42.678;23.332;2023-07-28T11:16:49;94444.31;;;30.06;52.70
13209;BME280;6669;42.678;23.332;2023-07-28T11:19:17;94457.28;;;29.84;53.28
13209;BME280;6669;42.678;23.332;2023-07-28T11:21:54;94456.78;;;29.68;52.38
13209;BME280;6669;42.678;23.332;2023-07-28T11:24:25;94451.03;;;29.61;52.53
13209;BME280;6669;42.678;23.332;2023-07-28T11:26:54;94436.06;;;29.88;53.10
13209;BME280;6669;42.678;23.332;2023-07-28T11:29:23;94429.31;;;30.05;52.13
13209;BME280;6669;42.678;23.332;2023-07-28T11:31:51;94423.63;;;30.20;52.96
13209;BME280;6669;42.678;23.332;2023-07-28T11:34:20;94437.88;;;30.57;52.33
13209;BME280;6669;42.678;23.332;2023-07-28T11:36:48;94431.53;;;30.76;51.85
13209;BME280;6669;42.678;23.332;2023-07-28T11:39:17;94423.09;;;30.91;49.98
13209;BME280;6669;42.678;23.332;2023-07-28T11:41:48;94420.78;;;31.53;49.63
13209;BME280;6669;42.678;23.332;2023-07-28T11:44:20;94420.78;;;31.61;48.04
13209;BME280;6669;42.678;23.332;2023-07-28T11:46:48;94408.34;;;32.23;47.11
13209;BME280;6669;42.678;23.332;2023-07-28T11:49:20;94396.81;;;32.49;48.46
13209;BME280;6669;42.678;23.332;2023-07-28T11:51:51;94416.81;;;31.90;46.83
13209;BME280;6669;42.678;23.332;2023-07-28T11:54:24;94418.44;;;32.09;45.92
13209;BME280;6669;42.678;23.332;2023-07-28T11:56:55;94407.34;;;31.61;46.86
13209;BME280;6669;42.678;23.332;2023-07-28T11:59:23;94424.59;;;31.60;46.59
13209;BME280;6669;42.678;23.332;2023-07-28T12:01:52;94412.00;;;31.38;48.11
13209;BME280;6669;42.678;23.332;2023-07-28T12:04:24;94404.53;;;31.58;46.72
13209;BME280;6669;42.678;23.332;2023-07-28T12:07:03;94410.94;;;31.88;47.51
13209;BME280;6669;42.678;23.332;2023-07-28T12:09:49;94402.19;;;32.32;47.16
13209;BME280;6669;42.678;23.332;2023-07-28T12:12:22;94395.97;;;33.01;46.92
13209;BME280;6669;42.678;23.332;2023-07-28T12:14:51;94404.38;;;33.00;45.93
13209;BME280;6669;42.678;23.332;2023-07-28T12:17:23;94398.00;;;31.90;45.28
13209;BME280;6669;42.678;23.332;2023-07-28T12:20:14;94390.91;;;31.54;45.94
13209;BME280;6669;42.678;23.332;2023-07-28T12:22:44;94383.44;;;31.83;46.03
13209;BME280;6669;42.678;23.332;2023-07-28T12:25:13;94378.78;;;32.23;46.31
13209;BME280;6669;42.678;23.332;2023-07-28T12:27:42;94384.63;;;32.25;46.16
13209;BME280;6669;42.678;23.332;2023-07-28T12:30:11;94380.94;;;32.04;45.95
13209;BME280;6669;42.678;23.332;2023-07-28T12:32:43;94378.84;;;31.74;47.19
13209;BME280;6669;42.678;23.332;2023-07-28T12:35:14;94374.81;;;32.47;47.20
13209;BME280;6669;42.678;23.332;2023-07-28T12:37:42;94381.47;;;32.58;46.70
13209;BME280;6669;42.678;23.332;2023-07-28T12:40:14;94375.94;;;32.37;46.08
13209;BME280;6669;42.678;23.332;2023-07-28T12:42:45;94368.00;;;32.23;45.79
13209;BME280;6669;42.678;23.332;2023-07-28T12:45:16;94360.41;;;32.43;46.50
13209;BME280;6669;42.678;23.332;2023-07-28T12:47:48;94358.69;;;32.47;46.14
13209;BME280;6669;42.678;23.332;2023-07-28T12:50:24;94359.31;;;32.79;46.61
13209;BME280;6669;42.678;23.332;2023-07-28T12:52:53;94359.38;;;33.09;46.29
13209;BME280;6669;42.678;23.332;2023-07-28T12:55:25;94351.09;;;33.62;46.31
13209;BME280;6669;42.678;23.332;2023-07-28T12:57:54;94362.28;;;33.81;45.94
13209;BME280;6669;42.678;23.332;2023-07-28T13:00:22;94359.53;;;33.90;44.68
13209;BME280;6669;42.678;23.332;2023-07-28T13:02:53;94355.06;;;33.64;45.09